Time;durP1;ratioP1;P1;durP2;ratioP2;P2;SDS_P1;SDS_P2;PMS_P1;PMS_P2;Temp;Humidity;BMP_temperature;BMP_pressure;BME280_temperature;BME280_humidity;BME280_pressure;Samples;Min_cycle;Max_cycle;Signal;HPM_P1;HPM_P2
2023/03/07 00:02:36;;;;;;;14.65;10.45;;;4.90;98.90;;;;;;6129121;29;20526;-76
2023/03/07 00:05:38;;;;;;;16.45;11.07;;;4.90;99.00;;;;;;6126962;29;20048;-76
2023/03/07 00:08:41;;;;;;;18.90;11.35;;;4.90;98.90;;;;;;6126708;29;20051;-77
2023/03/07 00:11:43;;;;;;;17.25;11.80;;;4.90;98.90;;;;;;6128962;29;20044;-77
2023/03/07 00:14:45;;;;;;;20.50;12.15;;;4.90;98.90;;;;;;6131075;29;20043;-77
2023/03/07 00:17:47;;;;;;;23.27;12.00;;;4.90;98.90;;;;;;6124956;29;20062;-78
2023/03/07 00:20:57;;;;;;;20.58;13.52;;;4.80;98.90;;;;;;6125052;29;20043;-78
2023/03/07 00:24:00;;;;;;;15.32;10.25;;;4.90;98.90;;;;;;6088888;29;20077;-77
2023/03/07 00:27:01;;;;;;;18.52;13.32;;;4.80;98.80;;;;;;6120035;29;20526;-78
2023/03/07 00:30:04;;;;;;;20.20;11.07;;;4.90;98.90;;;;;;6126274;29;20044;-77
2023/03/07 00:33:06;;;;;;;17.50;10.10;;;4.90;98.80;;;;;;6129810;29;20412;-77
2023/03/07 00:36:12;;;;;;;16.77;10.98;;;4.90;98.80;;;;;;6129671;29;20056;-77
2023/03/07 00:39:15;;;;;;;17.02;9.73;;;4.90;98.70;;;;;;6130259;29;20094;-77
2023/03/07 00:42:16;;;;;;;22.63;13.00;;;4.90;98.70;;;;;;6129188;29;20051;-76
2023/03/07 00:45:18;;;;;;;20.10;12.23;;;4.90;98.60;;;;;;6127819;29;20422;-77
2023/03/07 00:48:20;;;;;;;17.40;11.45;;;4.90;98.60;;;;;;6128004;29;20422;-77
2023/03/07 00:51:23;;;;;;;18.80;14.15;;;4.90;98.60;;;;;;6129164;29;20060;-77
2023/03/07 00:54:26;;;;;;;16.42;11.18;;;4.90;98.50;;;;;;6128517;29;20059;-77
2023/03/07 00:57:28;;;;;;;20.73;11.90;;;4.90;98.50;;;;;;6128100;29;20051;-77
2023/03/07 01:00:29;;;;;;;17.33;10.35;;;4.90;98.40;;;;;;6128473;29;20059;-76
2023/03/07 01:03:32;;;;;;;25.52;13.27;;;5.00;98.30;;;;;;6128648;29;20060;-77
2023/03/07 01:06:34;;;;;;;18.10;12.20;;;5.00;98.20;;;;;;6128363;29;20043;-77
2023/03/07 01:09:37;;;;;;;16.58;9.73;;;5.00;98.20;;;;;;6128152;29;20403;-77
2023/03/07 01:12:39;;;;;;;14.27;10.82;;;5.00;98.20;;;;;;6127729;29;20043;-77
2023/03/07 01:15:41;;;;;;;18.48;11.45;;;5.00;98.20;;;;;;6127971;29;20419;-77
2023/03/07 01:18:44;;;;;;;16.67;11.48;;;5.00;98.10;;;;;;6128330;29;20056;-77
2023/03/07 01:21:46;;;;;;;28.45;14.13;;;5.00;98.10;;;;;;6128382;29;20426;-77
2023/03/07 01:24:49;;;;;;;22.42;11.95;;;5.00;98.10;;;;;;6132358;29;20048;-77
2023/03/07 01:27:51;;;;;;;18.02;12.35;;;5.00;98.10;;;;;;6132216;29;20051;-77
2023/03/07 01:30:59;;;;;;;18.45;13.15;;;5.00;98.10;;;;;;6130448;29;20055;-77
2023/03/07 01:34:01;;;;;;;;;;;5.10;98.20;;;;;;6132678;29;20056;-77
2023/03/07 01:37:03;;;;;;;17.58;10.77;;;5.10;98.40;;;;;;6123736;29;19975;-77
2023/03/07 01:40:07;;;;;;;19.75;14.07;;;5.00;99.00;;;;;;6108824;29;20048;-77
2023/03/07 01:43:22;;;;;;;16.38;11.07;;;4.80;99.30;;;;;;6108990;29;20063;-78
2023/03/07 01:46:47;;;;;;;23.75;13.77;;;4.70;99.60;;;;;;6085000;29;20392;-77
2023/03/07 01:49:49;;;;;;;20.17;11.88;;;4.60;99.90;;;;;;6104285;29;20052;-77
2023/03/07 01:52:54;;;;;;;19.83;12.07;;;4.60;99.90;;;;;;6107705;29;20051;-77
2023/03/07 01:55:57;;;;;;;23.63;13.75;;;4.50;99.90;;;;;;6107986;29;20460;-77
2023/03/07 01:58:59;;;;;;;17.20;9.88;;;4.50;99.90;;;;;;6108631;29;20052;-77
2023/03/07 02:02:06;;;;;;;22.73;13.48;;;4.40;99.90;;;;;;6109049;29;20055;-77
2023/03/07 02:05:12;;;;;;;21.07;13.23;;;4.40;99.90;;;;;;6108458;29;20048;-77
2023/03/07 02:08:16;;;;;;;22.60;14.43;;;4.30;99.90;;;;;;6108142;29;20063;-77
2023/03/07 02:11:19;;;;;;;23.55;13.23;;;4.30;99.90;;;;;;6107851;29;20415;-77
2023/03/07 02:14:21;;;;;;;23.20;13.00;;;4.30;99.90;;;;;;6107903;29;20063;-77
2023/03/07 02:17:23;;;;;;;25.85;14.40;;;4.20;99.90;;;;;;6107257;29;20052;-77
2023/03/07 02:20:34;;;;;;;21.13;14.32;;;4.10;99.90;;;;;;6107333;29;20099;-77
2023/03/07 02:23:46;;;;;;;30.23;15.05;;;4.10;99.90;;;;;;6107873;29;20052;-77
2023/03/07 02:26:52;;;;;;;19.42;13.50;;;4.10;99.90;;;;;;6107000;29;20052;-77
2023/03/07 02:29:53;;;;;;;21.13;13.13;;;4.00;99.90;;;;;;6107343;29;20059;-77
2023/03/07 02:32:55;;;;;;;26.08;13.07;;;4.10;99.90;;;;;;6116694;29;20047;-76
2023/03/07 02:36:01;;;;;;;20.90;14.05;;;4.10;99.90;;;;;;6131327;29;20048;-77
2023/03/07 02:39:06;;;;;;;23.23;15.05;;;4.10;99.90;;;;;;6133002;29;20702;-78
2023/03/07 02:42:14;;;;;;;17.00;11.73;;;4.10;99.90;;;;;;6131881;29;20055;-77
2023/03/07 02:45:18;;;;;;;21.80;13.38;;;4.10;99.90;;;;;;6131029;29;20146;-77
2023/03/07 02:48:20;;;;;;;20.77;12.70;;;4.00;99.90;;;;;;6131255;29;20043;-77
2023/03/07 02:51:22;;;;;;;22.63;14.23;;;4.10;99.90;;;;;;6131600;29;20067;-76
2023/03/07 02:54:24;;;;;;;17.83;12.18;;;4.10;99.90;;;;;;6131763;29;20078;-77
2023/03/07 02:57:27;;;;;;;19.58;13.52;;;4.20;99.90;;;;;;6130159;29;20043;-76
2023/03/07 03:00:29;;;;;;;20.23;13.20;;;4.20;99.90;;;;;;6132271;29;20515;-77
2023/03/07 03:03:31;;;;;;;23.98;14.00;;;4.30;99.90;;;;;;6131465;29;20052;-77
2023/03/07 03:06:33;;;;;;;21.08;11.88;;;4.30;99.90;;;;;;6130688;29;20052;-77
2023/03/07 03:09:35;;;;;;;20.20;12.98;;;4.30;99.90;;;;;;6130776;29;20051;-77
2023/03/07 03:12:38;;;;;;;19.15;13.20;;;4.30;99.90;;;;;;6130933;29;20410;-76
2023/03/07 03:15:40;;;;;;;18.55;12.02;;;4.40;99.90;;;;;;6130850;29;20051;-77
2023/03/07 03:18:41;;;;;;;19.05;12.95;;;4.40;99.90;;;;;;6129659;29;20060;-77
2023/03/07 03:21:43;;;;;;;18.38;11.95;;;4.50;99.90;;;;;;6129613;29;20055;-76
2023/03/07 03:24:45;;;;;;;22.45;13.55;;;4.50;99.90;;;;;;6129083;29;20478;-77
2023/03/07 03:27:48;;;;;;;15.85;11.15;;;4.50;99.90;;;;;;6129681;29;20047;-77
2023/03/07 03:30:57;;;;;;;18.48;12.98;;;4.50;99.90;;;;;;6113862;29;20052;-77
2023/03/07 03:33:59;;;;;;;19.88;12.23;;;4.50;99.90;;;;;;6106827;29;20052;-77
2023/03/07 03:37:00;;;;;;;21.13;14.25;;;4.50;99.90;;;;;;6106306;29;20052;-77
2023/03/07 03:40:05;;;;;;;16.58;11.50;;;4.50;99.90;;;;;;6107235;29;20058;-77
2023/03/07 03:43:08;;;;;;;16.15;10.27;;;4.50;99.90;;;;;;6107303;29;20056;-76
2023/03/07 03:46:10;;;;;;;18.88;12.15;;;4.50;99.90;;;;;;6105405;29;20055;-77
2023/03/07 03:49:13;;;;;;;25.23;13.32;;;4.50;99.90;;;;;;6105396;29;20048;-77
2023/03/07 03:52:14;;;;;;;20.60;11.32;;;4.50;99.90;;;;;;6106012;29;20055;-77
2023/03/07 03:55:16;;;;;;;18.00;12.05;;;4.50;99.90;;;;;;6105428;29;20056;-76
2023/03/07 03:58:20;;;;;;;19.13;13.43;;;4.50;99.90;;;;;;6105790;29;20123;-77
2023/03/07 04:01:23;;;;;;;17.58;10.95;;;4.50;99.90;;;;;;6105547;29;20519;-77
2023/03/07 04:04:25;;;;;;;20.55;13.50;;;4.50;99.90;;;;;;6106017;29;20044;-76
2023/03/07 04:07:28;;;;;;;25.23;14.10;;;4.50;99.90;;;;;;6104517;29;20053;-77
2023/03/07 04:10:30;;;;;;;17.30;12.23;;;4.50;99.90;;;;;;6106403;29;20051;-77
2023/03/07 04:13:34;;;;;;;21.30;12.82;;;4.60;99.90;;;;;;6106336;29;20093;-77
2023/03/07 04:16:36;;;;;;;20.42;12.30;;;4.60;99.90;;;;;;6106285;29;20051;-77
2023/03/07 04:19:38;;;;;;;16.73;11.88;;;4.50;99.90;;;;;;6106388;29;20048;-77
2023/03/07 04:22:39;;;;;;;18.95;11.75;;;4.50;99.90;;;;;;6106729;29;20075;-77
2023/03/07 04:25:46;;;;;;;18.92;12.02;;;4.60;99.90;;;;;;6105838;29;20051;-77
2023/03/07 04:28:49;;;;;;;23.65;13.10;;;4.60;99.90;;;;;;6106270;29;20048;-77
2023/03/07 04:31:51;;;;;;;17.17;11.75;;;4.60;99.90;;;;;;6106695;29;20044;-77
2023/03/07 04:34:52;;;;;;;13.65;10.63;;;4.60;99.90;;;;;;6106228;29;20063;-77
2023/03/07 04:37:54;;;;;;;17.83;10.18;;;4.60;99.90;;;;;;6105351;29;20067;-77
2023/03/07 04:40:56;;;;;;;17.63;10.50;;;4.60;99.90;;;;;;6105843;29;20051;-77
2023/03/07 04:43:59;;;;;;;18.92;10.50;;;4.60;99.90;;;;;;6128872;29;20055;-78
2023/03/07 04:47:00;;;;;;;19.20;12.45;;;4.70;99.90;;;;;;6129702;29;20055;-77
2023/03/07 04:50:02;;;;;;;16.52;11.25;;;4.70;99.90;;;;;;6129022;29;20052;-77
2023/03/07 04:53:04;;;;;;;17.02;9.70;;;4.70;99.90;;;;;;6129120;29;20069;-77
2023/03/07 04:56:07;;;;;;;18.45;10.93;;;4.70;99.90;;;;;;6128364;29;20060;-77
2023/03/07 04:59:11;;;;;;;14.70;9.38;;;4.80;99.90;;;;;;6133462;29;20059;-77
2023/03/07 05:02:13;;;;;;;15.10;10.15;;;4.80;99.90;;;;;;6133397;29;20135;-77
2023/03/07 05:05:16;;;;;;;20.02;9.50;;;4.80;99.80;;;;;;6133486;29;20641;-77
2023/03/07 05:08:18;;;;;;;13.52;8.77;;;4.90;99.60;;;;;;6133043;29;20050;-77
2023/03/07 05:11:19;;;;;;;16.75;10.45;;;4.90;99.50;;;;;;6134264;29;20052;-78
2023/03/07 05:14:23;;;;;;;13.30;9.45;;;4.90;99.40;;;;;;6133001;29;20047;-77
2023/03/07 05:17:24;;;;;;;21.23;10.88;;;4.90;99.20;;;;;;6132537;29;20050;-77
2023/03/07 05:20:28;;;;;;;16.45;9.93;;;4.90;99.10;;;;;;6132674;29;20059;-77
2023/03/07 05:23:30;;;;;;;16.60;11.05;;;5.00;99.10;;;;;;6123668;29;20052;-77
2023/03/07 05:26:32;;;;;;;15.15;10.05;;;5.00;99.10;;;;;;6109732;29;20068;-77
2023/03/07 05:29:35;;;;;;;14.60;9.30;;;5.00;98.90;;;;;;6109646;29;20052;-78
2023/03/07 05:32:36;;;;;;;17.77;10.88;;;5.00;98.70;;;;;;6110049;29;20067;-78
2023/03/07 05:35:38;;;;;;;15.60;10.90;;;5.00;98.90;;;;;;6111663;29;20157;-79
2023/03/07 05:38:40;;;;;;;15.93;9.88;;;5.00;98.50;;;;;;6112211;29;20096;-79
2023/03/07 05:41:42;;;;;;;15.23;11.13;;;5.00;98.50;;;;;;6110207;29;20048;-78
2023/03/07 05:44:45;;;;;;;18.83;9.15;;;5.00;98.40;;;;;;6110712;29;20048;-78
2023/03/07 05:47:46;;;;;;;15.07;9.93;;;5.10;98.40;;;;;;6111082;29;20525;-79
2023/03/07 05:50:48;;;;;;;16.17;11.02;;;5.10;98.40;;;;;;6110878;29;20052;-79
2023/03/07 05:53:50;;;;;;;12.25;9.57;;;5.10;98.30;;;;;;6110568;29;20052;-78
2023/03/07 05:56:51;;;;;;;18.95;9.68;;;5.10;98.20;;;;;;6110267;29;20048;-78
2023/03/07 05:59:54;;;;;;;15.77;10.57;;;5.10;98.20;;;;;;6109648;29;20063;-78
2023/03/07 06:02:56;;;;;;;15.10;10.75;;;5.10;98.20;;;;;;6109700;29;20067;-78
2023/03/07 06:05:58;;;;;;;12.35;9.30;;;5.10;98.10;;;;;;6109193;29;20048;-78
2023/03/07 06:09:00;;;;;;;13.18;9.68;;;5.10;98.00;;;;;;6108680;29;20054;-77
2023/03/07 06:12:01;;;;;;;13.02;7.88;;;5.10;97.90;;;;;;6109871;29;20122;-78
2023/03/07 06:15:05;;;;;;;14.07;10.02;;;5.10;97.80;;;;;;6110841;29;20052;-79
2023/03/07 06:18:07;;;;;;;21.70;12.15;;;5.10;97.70;;;;;;6111174;29;20507;-78
2023/03/07 06:21:12;;;;;;;19.00;12.57;;;5.10;97.60;;;;;;6113830;29;20051;-79
2023/03/07 06:24:13;;;;;;;17.02;9.75;;;5.10;97.60;;;;;;6113939;29;20063;-79
2023/03/07 06:27:15;;;;;;;14.90;10.85;;;5.20;97.50;;;;;;6113437;29;20060;-78
2023/03/07 06:30:18;;;;;;;16.10;11.23;;;5.20;97.40;;;;;;6113356;29;20074;-78
2023/03/07 06:33:20;;;;;;;8.02;6.30;;;5.20;97.60;;;;;;6117667;29;20049;-78
2023/03/07 06:36:22;;;;;;;11.85;8.80;;;5.20;97.30;;;;;;6140878;29;20391;-78
2023/03/07 06:39:23;;;;;;;15.10;9.27;;;5.30;97.20;;;;;;6142673;29;20047;-79
2023/03/07 06:42:25;;;;;;;17.15;10.35;;;5.30;97.20;;;;;;6142984;29;20052;-78
2023/03/07 06:45:28;;;;;;;19.13;9.20;;;5.40;97.20;;;;;;6137522;29;20078;-78
2023/03/07 06:48:30;;;;;;;16.48;10.77;;;5.40;97.10;;;;;;6137402;29;20058;-78
2023/03/07 06:51:32;;;;;;;14.13;9.10;;;5.40;97.10;;;;;;6138316;29;20047;-79
2023/03/07 06:54:33;;;;;;;15.15;11.02;;;5.40;96.90;;;;;;6136866;29;20515;-79
2023/03/07 06:57:35;;;;;;;21.23;11.25;;;5.50;96.80;;;;;;6137532;29;20044;-78
2023/03/07 07:00:38;;;;;;;16.00;10.55;;;5.50;96.80;;;;;;6137919;29;20055;-78
2023/03/07 07:03:40;;;;;;;16.15;10.73;;;5.50;96.70;;;;;;6138898;29;20059;-79
2023/03/07 07:06:42;;;;;;;14.48;10.25;;;5.60;96.70;;;;;;6138463;29;20058;-78
2023/03/07 07:09:43;;;;;;;12.70;9.27;;;5.60;96.60;;;;;;6139064;29;20058;-79
2023/03/07 07:12:45;;;;;;;14.45;8.77;;;5.70;96.50;;;;;;6141021;29;20140;-79
2023/03/07 07:15:49;;;;;;;20.45;8.98;;;5.70;96.40;;;;;;6138263;29;20051;-78
2023/03/07 07:18:51;;;;;;;15.10;9.10;;;5.70;96.30;;;;;;6138549;29;20050;-79
2023/03/07 07:21:53;;;;;;;15.15;8.05;;;5.70;96.20;;;;;;6136208;29;20526;-78
2023/03/07 07:24:54;;;;;;;20.15;8.82;;;5.80;96.20;;;;;;6138777;29;20064;-78
2023/03/07 07:27:56;;;;;;;15.65;10.93;;;5.80;96.10;;;;;;6137282;29;20430;-79
2023/03/07 07:30:59;;;;;;;18.80;9.63;;;5.80;96.20;;;;;;6135625;29;20074;-79
2023/03/07 07:34:01;;;;;;;14.05;8.98;;;5.90;96.10;;;;;;6115049;29;20139;-79
2023/03/07 07:37:03;;;;;;;18.48;7.93;;;5.90;96.00;;;;;;6113753;29;20057;-79
2023/03/07 07:40:07;;;;;;;13.48;9.32;;;5.90;95.90;;;;;;6112882;29;20044;-78
2023/03/07 07:43:14;;;;;;;17.58;8.10;;;6.00;95.70;;;;;;6112954;29;20048;-78
2023/03/07 07:46:17;;;;;;;15.65;8.65;;;6.00;95.70;;;;;;6112329;29;20384;-78
2023/03/07 07:49:19;;;;;;;18.08;8.85;;;6.00;95.70;;;;;;6112142;29;20059;-79
2023/03/07 07:52:20;;;;;;;16.13;9.25;;;6.10;95.70;;;;;;6111037;29;20048;-78
2023/03/07 07:55:23;;;;;;;14.52;10.27;;;6.20;95.70;;;;;;6109821;29;20510;-78
2023/03/07 07:58:25;;;;;;;13.45;8.88;;;6.20;95.50;;;;;;6113165;29;20048;-78
2023/03/07 08:01:28;;;;;;;14.65;9.02;;;6.30;95.50;;;;;;6109696;29;20057;-78
2023/03/07 08:04:30;;;;;;;15.73;9.05;;;6.40;95.30;;;;;;6059024;29;20051;-78
2023/03/07 08:07:32;;;;;;;12.93;9.00;;;6.40;95.20;;;;;;6129300;29;20047;-78
2023/03/07 08:10:34;;;;;;;14.98;10.18;;;6.40;94.80;;;;;;6129940;29;20051;-78
2023/03/07 08:13:36;;;;;;;10.88;8.45;;;6.40;94.80;;;;;;6133521;29;20498;-79
2023/03/07 08:16:39;;;;;;;14.45;9.23;;;6.40;94.90;;;;;;6122083;29;20047;-77
2023/03/07 08:19:40;;;;;;;20.35;10.07;;;6.50;94.80;;;;;;6119677;29;20503;-78
2023/03/07 08:22:43;;;;;;;15.40;7.82;;;6.50;94.50;;;;;;6126248;29;20055;-78
2023/03/07 08:25:45;;;;;;;12.15;8.68;;;6.50;94.60;;;;;;6133477;29;20043;-78
2023/03/07 08:28:47;;;;;;;12.93;9.15;;;6.50;94.40;;;;;;6129683;29;20070;-79
2023/03/07 08:31:52;;;;;;;13.15;8.55;;;6.50;94.40;;;;;;6131658;29;20052;-79
2023/03/07 08:34:54;;;;;;;13.77;9.10;;;6.60;94.40;;;;;;6132187;29;20068;-79
2023/03/07 08:37:56;;;;;;;14.40;8.77;;;6.50;94.40;;;;;;6133328;29;20442;-80
2023/03/07 08:41:02;;;;;;;12.75;8.13;;;6.60;94.40;;;;;;6124420;29;20060;-77
2023/03/07 08:44:05;;;;;;;13.82;9.40;;;6.70;94.20;;;;;;6131360;29;20070;-78
2023/03/07 08:47:10;;;;;;;13.93;10.30;;;6.60;94.10;;;;;;6124367;29;20056;-78
2023/03/07 08:50:12;;;;;;;13.50;9.85;;;6.70;94.20;;;;;;6129135;29;20040;-79
2023/03/07 08:53:13;;;;;;;11.13;8.18;;;6.70;93.90;;;;;;6124008;29;20039;-78
2023/03/07 08:56:17;;;;;;;15.20;8.20;;;6.70;93.90;;;;;;6129032;29;20048;-78
2023/03/07 08:59:19;;;;;;;17.90;9.82;;;6.60;93.90;;;;;;6128645;29;20415;-79
2023/03/07 09:02:22;;;;;;;16.92;11.30;;;6.60;94.20;;;;;;6128854;29;20047;-78
2023/03/07 09:05:24;;;;;;;13.95;9.52;;;6.60;94.00;;;;;;6123735;29;20043;-78
2023/03/07 09:08:26;;;;;;;16.05;9.27;;;6.60;94.10;;;;;;6128006;29;20522;-78
2023/03/07 09:11:28;;;;;;;14.30;10.20;;;6.60;94.30;;;;;;6126381;29;20055;-79
2023/03/07 09:14:30;;;;;;;19.83;9.45;;;6.60;94.20;;;;;;6133952;29;20542;-80
2023/03/07 09:17:33;;;;;;;14.98;10.55;;;6.70;94.40;;;;;;6129518;29;20395;-77
2023/03/07 09:20:35;;;;;;;12.57;9.85;;;6.70;94.20;;;;;;6122316;29;20335;-78
2023/03/07 09:23:36;;;;;;;17.85;9.35;;;6.80;94.20;;;;;;6122828;29;20064;-78
2023/03/07 09:26:38;;;;;;;14.30;8.45;;;6.80;94.10;;;;;;6130205;29;20081;-79
2023/03/07 09:29:39;;;;;;;13.75;8.63;;;6.90;94.30;;;;;;6127900;29;20055;-78
2023/03/07 09:32:43;;;;;;;15.18;9.45;;;7.00;94.30;;;;;;6127885;29;20047;-78
2023/03/07 09:35:44;;;;;;;12.75;9.07;;;7.10;94.20;;;;;;6125656;29;20133;-78
2023/03/07 09:38:47;;;;;;;12.48;9.82;;;7.20;94.10;;;;;;6125103;29;20044;-78
2023/03/07 09:41:55;;;;;;;14.27;8.88;;;7.30;93.70;;;;;;6125355;29;20047;-78
2023/03/07 09:45:12;;;;;;;13.15;8.48;;;7.30;93.40;;;;;;6129981;29;20051;-78
2023/03/07 09:48:31;;;;;;;11.90;7.82;;;7.30;93.20;;;;;;6130200;29;20044;-78
2023/03/07 09:51:38;;;;;;;15.63;8.73;;;7.30;93.00;;;;;;6129088;29;20411;-78
2023/03/07 09:54:45;;;;;;;14.52;7.55;;;7.30;92.70;;;;;;6130081;29;20513;-78
2023/03/07 09:57:50;;;;;;;14.90;8.18;;;7.20;92.40;;;;;;6131174;29;20051;-78
2023/03/07 10:00:59;;;;;;;14.00;7.85;;;7.20;92.20;;;;;;6132218;29;20048;-78
2023/03/07 10:04:05;;;;;;;12.52;8.60;;;7.20;92.20;;;;;;6130815;29;20058;-78
2023/03/07 10:07:09;;;;;;;8.93;6.95;;;7.20;92.00;;;;;;6132329;29;20521;-79
2023/03/07 10:10:16;;;;;;;13.93;9.18;;;7.20;92.30;;;;;;6130170;29;20133;-80
2023/03/07 10:13:32;;;;;;;15.35;9.93;;;7.10;91.60;;;;;;6139428;29;20051;-80
2023/03/07 10:16:45;;;;;;;17.50;8.20;;;7.00;91.60;;;;;;6139300;29;20039;-79
2023/03/07 10:19:49;;;;;;;10.25;7.03;;;6.90;91.60;;;;;;6134462;29;20047;-80
2023/03/07 10:22:59;;;;;;;11.93;8.77;;;6.90;91.60;;;;;;6137220;29;20511;-80
2023/03/07 10:26:08;;;;;;;10.60;7.43;;;6.90;91.70;;;;;;6145633;29;20050;-79
2023/03/07 10:29:16;;;;;;;16.90;8.25;;;7.00;91.50;;;;;;6138887;29;20053;-80
2023/03/07 10:32:22;;;;;;;11.50;8.00;;;7.10;91.40;;;;;;6137904;29;20062;-78
2023/03/07 10:35:37;;;;;;;12.65;9.73;;;7.30;91.40;;;;;;6135787;29;20048;-80
2023/03/07 10:38:48;;;;;;;11.77;8.25;;;7.40;90.90;;;;;;6140214;29;20050;-80
2023/03/07 10:41:50;;;;;;;13.60;7.18;;;7.60;90.50;;;;;;6121880;29;20051;-80
2023/03/07 10:44:53;;;;;;;12.35;6.28;;;7.80;90.50;;;;;;6116671;29;20044;-80
2023/03/07 10:47:54;;;;;;;11.82;7.97;;;8.10;90.10;;;;;;6114731;29;20059;-80
2023/03/07 10:51:06;;;;;;;11.85;6.20;;;8.40;89.90;;;;;;6112289;29;20397;-81
2023/03/07 10:54:13;;;;;;;11.15;7.50;;;8.40;87.70;;;;;;6113944;29;21185;-82
2023/03/07 10:57:17;;;;;;;10.83;7.20;;;8.40;87.70;;;;;;6111629;29;20045;-82
2023/03/07 11:00:20;;;;;;;10.48;8.45;;;8.40;86.50;;;;;;6126066;29;20067;-82
2023/03/07 11:03:26;;;;;;;12.05;7.45;;;8.30;86.00;;;;;;6123310;29;20048;-82
2023/03/07 11:06:38;;;;;;;13.00;8.40;;;8.30;85.90;;;;;;6138528;29;20063;-82
2023/03/07 11:09:47;;;;;;;10.05;7.35;;;8.40;85.60;;;;;;6124630;29;20064;-83
2023/03/07 11:12:49;;;;;;;13.50;8.23;;;8.40;85.10;;;;;;6121651;29;20066;-80
2023/03/07 11:15:51;;;;;;;12.20;7.88;;;8.50;85.20;;;;;;6133092;29;20039;-80
2023/03/07 11:18:53;;;;;;;17.85;7.38;;;8.50;85.20;;;;;;6133338;29;20066;-80
2023/03/07 11:21:58;;;;;;;12.70;7.10;;;8.40;84.20;;;;;;6134253;29;20047;-79
2023/03/07 11:25:02;;;;;;;11.27;7.07;;;8.40;83.70;;;;;;6122392;29;20536;-81
2023/03/07 11:28:04;;;;;;;11.15;7.38;;;8.40;83.50;;;;;;6123976;29;20380;-80
2023/03/07 11:31:16;;;;;;;9.55;6.38;;;8.50;84.30;;;;;;6113085;29;20063;-79
2023/03/07 11:34:30;;;;;;;11.25;7.22;;;8.60;82.90;;;;;;6116811;29;20071;-80
2023/03/07 11:37:36;;;;;;;12.18;7.43;;;8.60;82.90;;;;;;6114547;29;20530;-80
2023/03/07 11:40:43;;;;;;;9.93;6.88;;;8.70;82.70;;;;;;6111138;29;20064;-82
2023/03/07 11:44:08;;;;;;;10.70;6.65;;;8.70;82.20;;;;;;6117901;29;20063;-80
2023/03/07 11:47:24;;;;;;;11.80;8.25;;;8.80;81.70;;;;;;6132653;29;20055;-81
2023/03/07 11:50:29;;;;;;;10.73;7.03;;;8.90;81.80;;;;;;6140606;29;20039;-81
2023/03/07 11:53:48;;;;;;;11.48;8.07;;;8.90;80.70;;;;;;6131902;29;20075;-81
2023/03/07 11:56:52;;;;;;;7.45;6.50;;;8.80;80.10;;;;;;6135688;29;20063;-80
2023/03/07 12:00:17;;;;;;;14.65;7.07;;;8.80;81.70;;;;;;6140960;29;20043;-85
2023/03/07 12:03:37;;;;;;;11.55;7.43;;;9.00;80.70;;;;;;6138914;29;20048;-82
2023/03/07 12:06:48;;;;;;;11.90;8.68;;;9.00;80.90;;;;;;6148316;29;20051;-80
2023/03/07 12:09:57;;;;;;;10.52;6.65;;;9.10;79.70;;;;;;6142821;29;20062;-82
2023/03/07 12:13:11;;;;;;;13.35;7.85;;;9.00;79.50;;;;;;6141225;29;20057;-80
2023/03/07 12:16:25;;;;;;;18.80;12.50;;;9.00;79.40;;;;;;6132372;29;20058;-80
2023/03/07 12:19:53;;;;;;;10.75;8.70;;;9.00;79.70;;;;;;6142155;29;20039;-80
2023/03/07 12:23:06;;;;;;;15.25;10.02;;;9.20;79.50;;;;;;6139421;29;20051;-81
2023/03/07 12:26:15;;;;;;;12.85;8.45;;;9.20;79.40;;;;;;6140527;29;20051;-81
2023/03/07 12:29:24;;;;;;;11.65;7.32;;;9.10;79.00;;;;;;6139822;29;20044;-81
2023/03/07 12:32:27;;;;;;;13.45;7.55;;;9.10;78.70;;;;;;6141137;29;20054;-81
2023/03/07 12:35:39;;;;;;;14.77;11.13;;;9.00;79.50;;;;;;6143391;29;20050;-81
2023/03/07 12:38:47;;;;;;;12.88;7.55;;;8.90;78.80;;;;;;6139085;29;20070;-79
2023/03/07 12:41:58;;;;;;;10.75;9.55;;;8.90;78.50;;;;;;6143775;29;20055;-79
2023/03/07 12:45:07;;;;;;;11.90;7.00;;;8.80;78.50;;;;;;6138676;29;20067;-78
2023/03/07 12:48:18;;;;;;;9.40;7.75;;;8.70;78.40;;;;;;6136494;29;20051;-78
2023/03/07 12:51:25;;;;;;;8.80;6.30;;;8.70;78.30;;;;;;6133680;29;20044;-79
2023/03/07 12:54:30;;;;;;;8.57;5.90;;;8.80;78.10;;;;;;6133128;29;20055;-79
2023/03/07 12:57:37;;;;;;;11.63;7.32;;;8.80;77.80;;;;;;6131168;29;20360;-80
2023/03/07 13:00:43;;;;;;;8.07;7.03;;;8.80;77.70;;;;;;6135037;29;20043;-80
2023/03/07 13:03:52;;;;;;;9.13;6.53;;;9.00;77.60;;;;;;6135722;29;20048;-79
2023/03/07 13:07:00;;;;;;;10.63;7.53;;;9.20;77.20;;;;;;6130435;29;20052;-80
2023/03/07 13:10:06;;;;;;;9.77;6.28;;;9.50;77.00;;;;;;6134655;29;20060;-79
2023/03/07 13:16:41;;;;;;;16.08;9.20;;;9.90;76.70;;;;;;6222257;28;20511;-81
2023/03/07 13:19:55;;;;;;;7.72;5.55;;;10.50;74.60;;;;;;6194592;28;20157;-79
2023/03/07 13:23:10;;;;;;;10.95;5.32;;;10.50;73.60;;;;;;6195802;28;20062;-81
2023/03/07 13:26:14;;;;;;;11.20;6.45;;;10.50;73.10;;;;;;6204120;28;20050;-80
2023/03/07 13:29:16;;;;;;;10.32;6.18;;;10.40;73.00;;;;;;6209608;28;20520;-79
2023/03/07 13:32:56;;;;;;;11.27;6.30;;;10.30;72.30;;;;;;6210360;28;20050;-80
2023/03/07 13:35:59;;;;;;;11.45;8.00;;;10.70;73.20;;;;;;6214158;28;20054;-80
2023/03/07 13:39:01;;;;;;;11.35;7.05;;;11.10;72.50;;;;;;6208375;28;20060;-80
2023/03/07 13:42:03;;;;;;;8.80;5.75;;;11.20;71.00;;;;;;6202856;28;20039;-80
2023/03/07 13:45:41;;;;;;;9.93;6.82;;;11.20;70.80;;;;;;6202090;28;20420;-79
2023/03/07 13:49:14;;;;;;;10.32;6.18;;;10.70;70.50;;;;;;6206308;28;20057;-79
2023/03/07 13:52:35;;;;;;;9.55;6.75;;;10.30;70.10;;;;;;6191724;28;20053;-81
2023/03/07 13:55:40;;;;;;;10.02;7.07;;;9.90;71.10;;;;;;6202912;28;20051;-81
2023/03/07 13:58:46;;;;;;;9.68;7.25;;;9.50;71.10;;;;;;6209047;28;20702;-79
2023/03/07 14:01:54;;;;;;;8.85;6.18;;;9.30;71.50;;;;;;6210015;28;20428;-78
2023/03/07 14:05:02;;;;;;;9.02;6.80;;;9.10;72.00;;;;;;6209014;28;20057;-80
2023/03/07 14:08:07;;;;;;;31.35;21.58;;;8.90;72.50;;;;;;6209144;28;20515;-79
2023/03/07 14:11:23;;;;;;;12.70;8.98;;;8.90;72.70;;;;;;6210074;28;20062;-80
2023/03/07 14:14:56;;;;;;;9.43;6.88;;;8.70;73.00;;;;;;6216720;28;20044;-81
2023/03/07 14:18:15;;;;;;;9.57;7.55;;;8.60;73.30;;;;;;6229190;28;20053;-80
2023/03/07 14:21:35;;;;;;;9.00;6.80;;;8.50;73.60;;;;;;6243804;28;20056;-79
2023/03/07 14:24:54;;;;;;;15.07;8.25;;;8.40;73.90;;;;;;6252377;28;20041;-79
2023/03/07 14:27:58;;;;;;;10.90;6.68;;;8.40;73.90;;;;;;6235418;28;20038;-79
2023/03/07 14:31:03;;;;;;;7.43;5.82;;;8.30;74.50;;;;;;6236784;28;20285;-79
2023/03/07 14:34:16;;;;;;;7.75;5.97;;;8.10;74.80;;;;;;6238614;28;20056;-79
2023/03/07 14:37:26;;;;;;;10.38;6.88;;;8.10;75.20;;;;;;6239036;28;20440;-80
2023/03/07 14:40:52;;;;;;;7.35;5.40;;;8.10;75.40;;;;;;6237411;28;20065;-82
2023/03/07 14:44:13;;;;;;;9.27;7.35;;;8.20;75.70;;;;;;6232799;28;20504;-82
2023/03/07 14:47:29;;;;;;;9.23;7.93;;;8.20;75.90;;;;;;6233394;28;20053;-82
2023/03/07 14:50:32;;;;;;;6.85;4.75;;;8.30;76.10;;;;;;6245602;28;20416;-80
2023/03/07 14:53:36;;;;;;;6.57;4.43;;;8.30;76.20;;;;;;6241466;28;20078;-82
2023/03/07 14:56:38;;;;;;;11.95;5.70;;;8.40;76.50;;;;;;6239255;28;20047;-79
2023/03/07 14:59:39;;;;;;;5.97;4.15;;;8.50;76.70;;;;;;6240645;28;20046;-81
2023/03/07 15:02:49;;;;;;;6.57;5.30;;;8.50;76.60;;;;;;6243294;28;20523;-80
2023/03/07 15:05:53;;;;;;;11.50;6.80;;;8.60;76.50;;;;;;6239341;28;20160;-81
2023/03/07 15:09:00;;;;;;;6.88;6.13;;;8.70;76.40;;;;;;6239691;28;20124;-81
2023/03/07 15:12:07;;;;;;;7.65;5.07;;;8.70;76.10;;;;;;6243232;28;20064;-81
2023/03/07 15:15:20;;;;;;;8.15;5.63;;;8.60;75.90;;;;;;6236339;28;20064;-80
2023/03/07 15:18:27;;;;;;;10.32;5.85;;;8.60;76.00;;;;;;6240785;28;20045;-83
2023/03/07 15:21:35;;;;;;;8.00;6.28;;;8.70;76.10;;;;;;6241243;28;20048;-82
2023/03/07 15:24:43;;;;;;;9.93;7.82;;;8.90;76.60;;;;;;6238651;28;20041;-82
2023/03/07 15:27:45;;;;;;;8.77;6.70;;;9.20;76.20;;;;;;6231447;28;20050;-80
2023/03/07 15:30:48;;;;;;;7.07;5.65;;;9.50;76.10;;;;;;6237253;28;20062;-81
2023/03/07 15:33:50;;;;;;;7.57;5.80;;;9.40;75.50;;;;;;6240063;28;21221;-81
2023/03/07 15:36:52;;;;;;;9.45;6.15;;;9.30;75.80;;;;;;6238716;28;20064;-81
2023/03/07 15:39:57;;;;;;;8.80;6.57;;;9.10;75.90;;;;;;6233920;28;20045;-80
2023/03/07 15:43:15;;;;;;;7.80;6.25;;;9.00;76.60;;;;;;6234990;28;20057;-79
2023/03/07 15:46:19;;;;;;;9.40;8.13;;;8.90;76.80;;;;;;6236017;28;20459;-79
2023/03/07 15:49:28;;;;;;;12.13;7.20;;;8.90;77.00;;;;;;6233104;28;20300;-82
2023/03/07 15:52:32;;;;;;;9.50;7.32;;;8.80;77.20;;;;;;6233637;28;20131;-81
2023/03/07 15:55:42;;;;;;;9.80;6.50;;;8.70;77.20;;;;;;6231227;28;20053;-81
2023/03/07 15:58:45;;;;;;;9.55;7.15;;;8.70;77.40;;;;;;6227027;28;20046;-81
2023/03/07 16:01:47;;;;;;;17.25;7.72;;;8.70;77.60;;;;;;6231694;28;21100;-81
2023/03/07 16:04:49;;;;;;;10.15;5.88;;;8.60;77.80;;;;;;6229842;28;20199;-81